createdAt,value
2019-03-06T00:03:15.426Z,2.80
2019-03-06T00:08:20.986Z,3.90
2019-03-06T00:13:29.766Z,3.47
2019-03-06T00:18:49.040Z,2.97
2019-03-06T00:23:54.613Z,3.40
2019-03-06T00:29:01.882Z,4.13
2019-03-06T00:34:07.905Z,3.33
2019-03-06T00:39:18.791Z,3.40
2019-03-06T00:44:25.975Z,2.93
2019-03-06T00:49:31.569Z,3.87
2019-03-06T00:54:37.155Z,3.93
2019-03-06T00:59:45.159Z,3.67
2019-03-06T01:04:51.122Z,3.67
2019-03-06T01:09:56.733Z,4.30
2019-03-06T01:15:02.334Z,4.60
2019-03-06T01:20:13.135Z,3.73
2019-03-06T01:25:19.797Z,4.63
2019-03-06T01:30:25.419Z,4.37
2019-03-06T01:36:02.137Z,5.07
2019-03-06T01:41:39.247Z,5.33
2019-03-06T01:46:43.999Z,4.80
2019-03-06T01:51:49.569Z,5.70
2019-03-06T01:57:06.654Z,4.90
2019-03-06T02:02:12.541Z,5.00
2019-03-06T02:07:18.216Z,5.60
2019-03-06T02:12:24.296Z,5.07
2019-03-06T02:17:29.862Z,5.00
2019-03-06T02:22:35.449Z,5.20
2019-03-06T02:27:41.412Z,5.80
2019-03-06T02:32:47.084Z,6.13
2019-03-06T02:37:52.656Z,5.47
2019-03-06T02:42:58.359Z,4.90
2019-03-06T02:48:05.981Z,5.83
2019-03-06T02:53:42.037Z,5.07
2019-03-06T02:58:54.851Z,5.73
2019-03-06T03:04:24.316Z,5.63
2019-03-06T03:09:30.200Z,5.63
2019-03-06T03:14:36.823Z,5.80
2019-03-06T03:19:43.059Z,6.47
2019-03-06T03:24:48.760Z,5.37
2019-03-06T03:29:54.350Z,5.50
2019-03-06T03:35:16.362Z,5.43
2019-03-06T03:40:27.458Z,5.70
2019-03-06T03:45:35.235Z,6.43
2019-03-06T03:50:41.127Z,5.63
2019-03-06T03:55:47.040Z,6.43
2019-03-06T04:00:52.866Z,6.17
2019-03-06T04:05:58.546Z,6.30
2019-03-06T04:11:08.728Z,6.30
2019-03-06T04:16:28.021Z,5.63
2019-03-06T04:21:34.446Z,6.77
2019-03-06T04:26:39.937Z,6.00
2019-03-06T04:31:45.896Z,5.87
2019-03-06T04:36:53.083Z,5.57
2019-03-06T04:41:58.663Z,6.70
2019-03-06T04:47:06.199Z,5.30
2019-03-06T04:52:13.460Z,6.23
2019-03-06T04:57:19.005Z,6.27
2019-03-06T05:02:24.576Z,5.73
2019-03-06T05:07:30.811Z,5.60
2019-03-06T05:12:36.480Z,7.33
2019-03-06T05:17:49.220Z,6.10
2019-03-06T05:22:54.833Z,6.40
2019-03-06T05:28:00.549Z,6.17
2019-03-06T05:33:08.567Z,6.03
2019-03-06T05:38:25.282Z,6.87
2019-03-06T05:43:30.788Z,6.03
2019-03-06T05:48:36.458Z,5.73
2019-03-06T05:53:42.177Z,5.60
2019-03-06T05:58:47.980Z,5.90
2019-03-06T06:03:53.531Z,6.17
2019-03-06T06:08:59.895Z,5.77
2019-03-06T06:14:05.724Z,5.87
2019-03-06T06:19:39.581Z,6.03
2019-03-06T06:24:45.512Z,5.63
2019-03-06T06:30:06.979Z,5.40
2019-03-06T06:35:15.557Z,5.10
2019-03-06T06:40:24.519Z,4.50
2019-03-06T06:45:33.061Z,4.60
2019-03-06T06:50:39.819Z,4.70
2019-03-06T06:56:32.477Z,4.17
2019-03-06T07:02:42.286Z,4.73
2019-03-06T07:08:07.922Z,4.60
2019-03-06T07:13:38.880Z,4.97
2019-03-06T07:19:12.902Z,8.67
2019-03-06T07:24:55.379Z,7.37
2019-03-06T07:30:35.225Z,8.20
2019-03-06T07:36:16.932Z,6.80
2019-03-06T07:41:40.108Z,5.70
2019-03-06T07:47:03.479Z,6.53
2019-03-06T07:52:34.028Z,5.27
2019-03-06T07:58:16.385Z,6.43
2019-03-06T08:03:35.244Z,6.60
2019-03-06T08:09:04.246Z,6.60
2019-03-06T08:14:33.119Z,5.80
2019-03-06T08:19:56.408Z,5.30
2019-03-06T08:25:20.373Z,4.90
2019-03-06T08:30:28.050Z,4.10
2019-03-06T08:35:34.195Z,4.50
2019-03-06T08:40:39.822Z,3.53
2019-03-06T08:45:56.591Z,3.03
2019-03-06T08:51:19.665Z,4.20
2019-03-06T08:56:44.194Z,3.53
2019-03-06T09:02:00.969Z,3.37
2019-03-06T09:07:26.872Z,3.50
2019-03-06T09:12:51.048Z,3.27
2019-03-06T09:18:34.148Z,3.33
2019-03-06T09:24:06.185Z,3.97
2019-03-06T09:29:36.792Z,4.13
2019-03-06T09:35:01.430Z,4.37
2019-03-06T09:40:23.212Z,5.63
2019-03-06T09:46:19.072Z,8.77
2019-03-06T09:51:43.750Z,10.20
2019-03-06T09:57:06.812Z,12.80
2019-03-06T10:02:19.546Z,12.20
2019-03-06T10:07:52.870Z,9.43
2019-03-06T10:13:07.548Z,5.03
2019-03-06T10:18:26.930Z,4.33
2019-03-06T10:23:32.533Z,4.70
2019-03-06T10:28:38.208Z,3.43
2019-03-06T10:33:44.222Z,3.87
2019-03-06T10:38:50.287Z,4.03
2019-03-06T10:43:56.116Z,3.50
2019-03-06T10:49:01.819Z,3.40
2019-03-06T10:54:07.675Z,3.77
2019-03-06T10:59:13.470Z,2.50
2019-03-06T11:04:27.362Z,2.33
2019-03-06T11:09:35.270Z,2.17
2019-03-06T11:14:40.985Z,1.87
2019-03-06T11:19:48.787Z,2.30
2019-03-06T11:24:54.989Z,3.73
2019-03-06T11:30:01.636Z,3.33
2019-03-06T11:35:10.716Z,4.17
2019-03-06T11:40:16.894Z,4.47
2019-03-06T11:45:26.259Z,6.53
2019-03-06T11:50:40.423Z,7.30
2019-03-06T11:55:39.919Z,9.20
2019-03-06T12:00:47.226Z,10.73
2019-03-06T12:05:53.547Z,11.63
2019-03-06T12:10:59.504Z,12.00
2019-03-06T12:16:05.728Z,10.40
2019-03-06T12:21:11.300Z,11.30
2019-03-06T12:26:17.036Z,10.70
2019-03-06T12:31:23.011Z,10.23
2019-03-06T12:36:28.586Z,10.47
2019-03-06T12:41:37.685Z,10.77
2019-03-06T12:46:44.097Z,9.30
2019-03-06T12:51:54.373Z,10.83
2019-03-06T12:56:58.494Z,9.80
2019-03-06T13:02:05.625Z,9.97
2019-03-06T13:07:13.175Z,10.40
2019-03-06T13:12:18.699Z,10.10
2019-03-06T13:17:26.262Z,10.80
2019-03-06T13:22:31.947Z,11.60
2019-03-06T13:27:37.521Z,9.50
2019-03-06T13:32:51.808Z,8.33
2019-03-06T13:37:57.507Z,9.17
2019-03-06T13:43:06.019Z,8.00
2019-03-06T13:48:35.716Z,7.30
2019-03-06T13:53:43.519Z,5.67
2019-03-06T13:58:49.224Z,5.23
2019-03-06T14:03:55.502Z,5.20
2019-03-06T14:14:12.314Z,3.37
2019-03-06T14:19:17.918Z,3.60
2019-03-06T14:24:25.356Z,3.53
2019-03-06T14:29:35.050Z,4.37
2019-03-06T14:34:40.688Z,3.67
2019-03-06T14:39:46.449Z,4.00
2019-03-06T14:44:52.092Z,3.37
2019-03-06T14:49:58.348Z,3.60
2019-03-06T14:55:04.439Z,4.03
2019-03-06T15:00:13.529Z,3.33
2019-03-06T15:05:20.817Z,2.87
2019-03-06T15:10:26.638Z,2.80
2019-03-06T15:15:32.332Z,3.17
2019-03-06T15:20:38.149Z,3.53
2019-03-06T15:25:44.180Z,10.80
2019-03-06T15:30:49.965Z,2.60
2019-03-06T15:35:58.753Z,4.50
2019-03-06T15:41:12.546Z,3.20
2019-03-06T15:46:20.439Z,3.50
2019-03-06T15:51:26.131Z,2.57
2019-03-06T15:56:32.134Z,4.80
2019-03-06T16:01:38.342Z,3.53
2019-03-06T16:06:44.001Z,2.70
2019-03-06T16:11:51.668Z,3.33
2019-03-06T16:16:57.584Z,3.77
2019-03-06T16:22:06.484Z,3.47
2019-03-06T16:27:16.201Z,3.60
2019-03-06T16:32:21.847Z,4.47
2019-03-06T16:37:28.403Z,4.23
2019-03-06T16:42:34.206Z,3.40
2019-03-06T16:47:40.369Z,3.83
2019-03-06T16:52:46.727Z,3.50
2019-03-06T16:57:54.100Z,3.10
2019-03-06T17:03:01.040Z,3.63
2019-03-06T17:08:11.701Z,10.43
2019-03-06T17:13:22.977Z,3.27
2019-03-06T17:18:31.863Z,3.40
2019-03-06T17:23:39.501Z,3.30
2019-03-06T17:28:48.233Z,3.70
2019-03-06T17:33:56.569Z,3.20
2019-03-06T17:39:11.097Z,3.37
2019-03-06T17:44:18.455Z,3.60
2019-03-06T17:49:24.434Z,10.13
2019-03-06T17:54:33.341Z,3.50
2019-03-06T17:59:43.359Z,2.90
2019-03-06T18:04:55.168Z,3.97
2019-03-06T18:10:01.490Z,3.43
2019-03-06T18:15:12.916Z,3.27
2019-03-06T18:20:20.773Z,3.67
2019-03-06T18:25:32.922Z,3.23
2019-03-06T18:30:43.020Z,3.10
2019-03-06T18:35:49.156Z,3.10
2019-03-06T18:40:59.364Z,3.07
2019-03-06T18:46:07.999Z,3.37
2019-03-06T18:51:16.267Z,3.53
2019-03-06T18:56:38.171Z,4.03
2019-03-06T19:01:46.768Z,4.60
2019-03-06T19:06:53.407Z,3.83
2019-03-06T19:12:12.758Z,5.87
2019-03-06T19:17:20.854Z,5.60
2019-03-06T19:22:31.272Z,5.97
2019-03-06T19:28:13.680Z,4.63
2019-03-06T19:33:23.563Z,3.50
2019-03-06T19:38:35.597Z,4.00
2019-03-06T19:43:41.944Z,3.53
2019-03-06T19:48:51.487Z,3.40
2019-03-06T19:54:03.273Z,3.40
2019-03-06T19:59:10.602Z,3.40
2019-03-06T20:04:22.769Z,3.07
2019-03-06T20:09:35.077Z,8.50
2019-03-06T20:14:44.399Z,3.10
2019-03-06T20:19:58.089Z,3.33
2019-03-06T20:25:29.133Z,3.10
2019-03-06T20:30:43.902Z,3.60
2019-03-06T20:35:50.156Z,3.30
2019-03-06T20:41:11.441Z,3.00
2019-03-06T20:46:22.209Z,3.13
2019-03-06T20:51:30.092Z,3.63
2019-03-06T20:56:49.896Z,3.20
2019-03-06T21:02:03.881Z,3.23
2019-03-06T21:07:12.796Z,3.70
2019-03-06T21:12:20.075Z,3.87
2019-03-06T21:17:27.542Z,3.43
2019-03-06T21:22:34.979Z,3.80
2019-03-06T21:27:41.006Z,3.50
2019-03-06T21:32:48.222Z,3.47
2019-03-06T21:37:57.233Z,3.90
2019-03-06T21:43:06.851Z,3.23
2019-03-06T21:48:14.616Z,3.10
2019-03-06T21:53:22.370Z,2.90
2019-03-06T21:58:29.589Z,3.07
2019-03-06T22:03:35.489Z,3.60
2019-03-06T22:08:41.173Z,3.00
2019-03-06T22:13:46.888Z,2.90
2019-03-06T22:18:53.374Z,2.57
2019-03-06T22:23:59.074Z,3.33
2019-03-06T22:29:05.424Z,3.07
2019-03-06T22:34:11.725Z,2.50
2019-03-06T22:39:17.494Z,2.80
2019-03-06T22:44:23.287Z,3.33
2019-03-06T22:49:29.055Z,3.80
2019-03-06T22:54:34.742Z,3.90
2019-03-06T22:59:40.479Z,3.10
2019-03-06T23:04:46.161Z,4.67
2019-03-06T23:09:52.210Z,3.77
2019-03-06T23:14:58.376Z,3.70
2019-03-06T23:20:09.334Z,3.77
2019-03-06T23:25:15.033Z,4.00
2019-03-06T23:30:36.308Z,4.10
2019-03-06T23:35:41.991Z,4.43
2019-03-06T23:40:47.664Z,4.60
2019-03-06T23:51:56.887Z,4.57
2019-03-06T23:57:07.192Z,4.80
